sensor_id;sensor_type;location;lat;lon;timestamp;P1;durP1;ratioP1;P2;durP2;ratioP2
15116;SDS011;7659;51.038;13.786;2024-02-21T00:02:03;17.67;;;3.95;;
15116;SDS011;7659;51.038;13.786;2024-02-21T00:04:29;14.25;;;3.58;;
15116;SDS011;7659;51.038;13.786;2024-02-21T00:06:55;17.88;;;3.67;;
15116;SDS011;7659;51.038;13.786;2024-02-21T00:09:20;25.98;;;4.85;;
15116;SDS011;7659;51.038;13.786;2024-02-21T00:11:46;17.45;;;3.70;;
15116;SDS011;7659;51.038;13.786;2024-02-21T00:14:11;14.13;;;3.90;;
15116;SDS011;7659;51.038;13.786;2024-02-21T00:16:36;17.30;;;4.03;;
15116;SDS011;7659;51.038;13.786;2024-02-21T00:19:02;21.65;;;4.22;;
15116;SDS011;7659;51.038;13.786;2024-02-21T00:21:27;14.00;;;3.65;;
15116;SDS011;7659;51.038;13.786;2024-02-21T00:23:53;17.13;;;4.18;;
15116;SDS011;7659;51.038;13.786;2024-02-21T00:26:18;16.27;;;3.90;;
15116;SDS011;7659;51.038;13.786;2024-02-21T00:28:43;17.55;;;4.00;;
15116;SDS011;7659;51.038;13.786;2024-02-21T00:31:10;23.05;;;4.05;;
15116;SDS011;7659;51.038;13.786;2024-02-21T00:33:35;17.10;;;4.13;;
15116;SDS011;7659;51.038;13.786;2024-02-21T00:36:01;15.85;;;4.00;;
15116;SDS011;7659;51.038;13.786;2024-02-21T00:38:26;15.55;;;3.92;;
15116;SDS011;7659;51.038;13.786;2024-02-21T00:40:51;14.15;;;3.67;;
15116;SDS011;7659;51.038;13.786;2024-02-21T00:43:17;15.68;;;3.80;;
15116;SDS011;7659;51.038;13.786;2024-02-21T00:45:42;18.30;;;3.88;;
15116;SDS011;7659;51.038;13.786;2024-02-21T00:48:08;20.10;;;3.60;;
15116;SDS011;7659;51.038;13.786;2024-02-21T00:50:33;15.25;;;3.67;;
15116;SDS011;7659;51.038;13.786;2024-02-21T00:52:59;11.32;;;3.58;;
15116;SDS011;7659;51.038;13.786;2024-02-21T00:55:24;16.15;;;3.78;;
15116;SDS011;7659;51.038;13.786;2024-02-21T00:57:50;11.73;;;3.17;;
15116;SDS011;7659;51.038;13.786;2024-02-21T01:00:15;14.73;;;3.10;;
15116;SDS011;7659;51.038;13.786;2024-02-21T01:02:41;19.85;;;4.03;;
15116;SDS011;7659;51.038;13.786;2024-02-21T01:05:06;12.82;;;3.13;;
15116;SDS011;7659;51.038;13.786;2024-02-21T01:07:32;21.10;;;4.15;;
15116;SDS011;7659;51.038;13.786;2024-02-21T01:09:57;18.65;;;3.80;;
15116;SDS011;7659;51.038;13.786;2024-02-21T01:12:23;18.23;;;4.35;;
15116;SDS011;7659;51.038;13.786;2024-02-21T01:14:48;19.17;;;3.90;;
15116;SDS011;7659;51.038;13.786;2024-02-21T01:17:14;19.45;;;3.65;;
15116;SDS011;7659;51.038;13.786;2024-02-21T01:19:40;12.80;;;4.15;;
15116;SDS011;7659;51.038;13.786;2024-02-21T01:22:05;17.65;;;3.28;;
15116;SDS011;7659;51.038;13.786;2024-02-21T01:24:31;13.05;;;3.70;;
15116;SDS011;7659;51.038;13.786;2024-02-21T01:26:56;19.10;;;3.67;;
15116;SDS011;7659;51.038;13.786;2024-02-21T01:29:21;16.73;;;3.75;;
15116;SDS011;7659;51.038;13.786;2024-02-21T01:31:47;16.48;;;3.47;;
15116;SDS011;7659;51.038;13.786;2024-02-21T01:34:13;14.20;;;3.67;;
15116;SDS011;7659;51.038;13.786;2024-02-21T01:36:38;14.95;;;3.42;;
15116;SDS011;7659;51.038;13.786;2024-02-21T01:39:03;15.57;;;3.35;;
15116;SDS011;7659;51.038;13.786;2024-02-21T01:41:29;12.43;;;3.17;;
15116;SDS011;7659;51.038;13.786;2024-02-21T01:43:55;15.80;;;3.67;;
15116;SDS011;7659;51.038;13.786;2024-02-21T01:46:20;21.70;;;4.07;;
15116;SDS011;7659;51.038;13.786;2024-02-21T01:48:46;18.48;;;3.50;;
15116;SDS011;7659;51.038;13.786;2024-02-21T01:51:11;14.95;;;3.42;;
15116;SDS011;7659;51.038;13.786;2024-02-21T01:53:37;17.45;;;3.42;;
15116;SDS011;7659;51.038;13.786;2024-02-21T01:56:03;17.65;;;3.60;;
15116;SDS011;7659;51.038;13.786;2024-02-21T01:58:30;15.48;;;3.65;;
15116;SDS011;7659;51.038;13.786;2024-02-21T02:00:56;20.10;;;4.40;;
15116;SDS011;7659;51.038;13.786;2024-02-21T02:03:21;20.88;;;3.22;;
15116;SDS011;7659;51.038;13.786;2024-02-21T02:05:48;17.25;;;4.07;;
15116;SDS011;7659;51.038;13.786;2024-02-21T02:08:14;18.05;;;3.38;;
15116;SDS011;7659;51.038;13.786;2024-02-21T02:10:40;18.13;;;4.28;;
15116;SDS011;7659;51.038;13.786;2024-02-21T02:13:05;16.95;;;3.78;;
15116;SDS011;7659;51.038;13.786;2024-02-21T02:18:08;17.40;;;3.75;;
15116;SDS011;7659;51.038;13.786;2024-02-21T02:20:34;23.27;;;3.90;;
15116;SDS011;7659;51.038;13.786;2024-02-21T02:23:00;20.05;;;3.70;;
15116;SDS011;7659;51.038;13.786;2024-02-21T02:25:27;16.10;;;3.00;;
15116;SDS011;7659;51.038;13.786;2024-02-21T02:27:53;13.57;;;3.88;;
15116;SDS011;7659;51.038;13.786;2024-02-21T02:30:18;13.45;;;3.70;;
15116;SDS011;7659;51.038;13.786;2024-02-21T02:32:44;17.08;;;4.43;;
15116;SDS011;7659;51.038;13.786;2024-02-21T02:35:10;18.42;;;4.50;;
15116;SDS011;7659;51.038;13.786;2024-02-21T02:37:35;18.27;;;4.43;;
15116;SDS011;7659;51.038;13.786;2024-02-21T02:40:01;18.42;;;4.85;;
15116;SDS011;7659;51.038;13.786;2024-02-21T02:42:27;15.82;;;4.60;;
15116;SDS011;7659;51.038;13.786;2024-02-21T02:44:53;13.57;;;3.63;;
15116;SDS011;7659;51.038;13.786;2024-02-21T02:47:18;22.48;;;4.70;;
15116;SDS011;7659;51.038;13.786;2024-02-21T02:49:44;20.50;;;4.68;;
15116;SDS011;7659;51.038;13.786;2024-02-21T02:52:10;17.73;;;4.38;;
15116;SDS011;7659;51.038;13.786;2024-02-21T02:54:35;19.63;;;4.43;;
15116;SDS011;7659;51.038;13.786;2024-02-21T02:57:00;16.63;;;4.20;;
15116;SDS011;7659;51.038;13.786;2024-02-21T02:59:26;14.60;;;4.35;;
15116;SDS011;7659;51.038;13.786;2024-02-21T03:01:51;14.20;;;3.90;;
15116;SDS011;7659;51.038;13.786;2024-02-21T03:04:17;18.38;;;4.25;;
15116;SDS011;7659;51.038;13.786;2024-02-21T03:06:42;12.35;;;4.07;;
15116;SDS011;7659;51.038;13.786;2024-02-21T03:09:07;17.08;;;4.28;;
15116;SDS011;7659;51.038;13.786;2024-02-21T03:11:34;12.88;;;4.10;;
15116;SDS011;7659;51.038;13.786;2024-02-21T03:13:59;14.95;;;3.45;;
15116;SDS011;7659;51.038;13.786;2024-02-21T03:16:24;16.35;;;4.47;;
15116;SDS011;7659;51.038;13.786;2024-02-21T03:18:50;16.23;;;3.60;;
15116;SDS011;7659;51.038;13.786;2024-02-21T03:21:15;14.35;;;3.85;;
15116;SDS011;7659;51.038;13.786;2024-02-21T03:23:41;15.93;;;3.70;;
15116;SDS011;7659;51.038;13.786;2024-02-21T03:26:07;13.75;;;3.15;;
15116;SDS011;7659;51.038;13.786;2024-02-21T03:28:32;13.30;;;3.72;;
15116;SDS011;7659;51.038;13.786;2024-02-21T03:30:58;17.10;;;3.88;;
15116;SDS011;7659;51.038;13.786;2024-02-21T03:33:23;13.15;;;3.50;;
15116;SDS011;7659;51.038;13.786;2024-02-21T03:35:49;13.70;;;3.70;;
15116;SDS011;7659;51.038;13.786;2024-02-21T03:38:14;13.18;;;3.28;;
15116;SDS011;7659;51.038;13.786;2024-02-21T03:40:39;16.27;;;3.58;;
15116;SDS011;7659;51.038;13.786;2024-02-21T03:43:05;13.07;;;4.10;;
15116;SDS011;7659;51.038;13.786;2024-02-21T03:45:30;14.13;;;3.13;;
15116;SDS011;7659;51.038;13.786;2024-02-21T03:47:56;22.25;;;4.50;;
15116;SDS011;7659;51.038;13.786;2024-02-21T03:50:21;17.23;;;3.78;;
15116;SDS011;7659;51.038;13.786;2024-02-21T03:52:46;18.48;;;3.60;;
15116;SDS011;7659;51.038;13.786;2024-02-21T03:55:13;16.50;;;4.05;;
15116;SDS011;7659;51.038;13.786;2024-02-21T03:57:38;15.43;;;4.28;;
15116;SDS011;7659;51.038;13.786;2024-02-21T04:00:04;13.27;;;3.35;;
15116;SDS011;7659;51.038;13.786;2024-02-21T04:02:50;14.70;;;3.25;;
15116;SDS011;7659;51.038;13.786;2024-02-21T04:05:16;21.30;;;4.10;;
15116;SDS011;7659;51.038;13.786;2024-02-21T04:07:41;17.70;;;3.50;;
15116;SDS011;7659;51.038;13.786;2024-02-21T04:10:07;19.67;;;4.68;;
15116;SDS011;7659;51.038;13.786;2024-02-21T04:12:33;16.10;;;4.43;;
15116;SDS011;7659;51.038;13.786;2024-02-21T04:14:58;14.30;;;3.55;;
15116;SDS011;7659;51.038;13.786;2024-02-21T04:17:24;17.92;;;3.92;;
15116;SDS011;7659;51.038;13.786;2024-02-21T04:19:49;13.55;;;4.30;;
15116;SDS011;7659;51.038;13.786;2024-02-21T04:22:14;18.00;;;3.92;;
15116;SDS011;7659;51.038;13.786;2024-02-21T04:24:40;15.70;;;4.28;;
15116;SDS011;7659;51.038;13.786;2024-02-21T04:27:05;14.02;;;3.90;;
15116;SDS011;7659;51.038;13.786;2024-02-21T04:29:31;14.25;;;3.50;;
15116;SDS011;7659;51.038;13.786;2024-02-21T04:31:56;12.93;;;3.78;;
15116;SDS011;7659;51.038;13.786;2024-02-21T04:34:22;17.77;;;4.05;;
15116;SDS011;7659;51.038;13.786;2024-02-21T04:36:47;17.35;;;4.25;;
15116;SDS011;7659;51.038;13.786;2024-02-21T04:39:12;22.52;;;4.13;;
15116;SDS011;7659;51.038;13.786;2024-02-21T04:41:38;15.65;;;3.88;;
15116;SDS011;7659;51.038;13.786;2024-02-21T04:44:03;13.45;;;3.53;;
15116;SDS011;7659;51.038;13.786;2024-02-21T04:46:29;14.63;;;3.70;;
15116;SDS011;7659;51.038;13.786;2024-02-21T04:48:54;14.27;;;3.60;;
15116;SDS011;7659;51.038;13.786;2024-02-21T04:51:20;14.48;;;3.88;;
15116;SDS011;7659;51.038;13.786;2024-02-21T04:53:46;13.70;;;3.92;;
15116;SDS011;7659;51.038;13.786;2024-02-21T04:56:11;22.58;;;4.28;;
15116;SDS011;7659;51.038;13.786;2024-02-21T04:58:37;12.43;;;3.53;;
15116;SDS011;7659;51.038;13.786;2024-02-21T05:01:03;15.70;;;3.85;;
15116;SDS011;7659;51.038;13.786;2024-02-21T05:03:28;22.23;;;4.35;;
15116;SDS011;7659;51.038;13.786;2024-02-21T05:05:54;16.75;;;3.90;;
15116;SDS011;7659;51.038;13.786;2024-02-21T05:08:19;14.80;;;4.22;;
15116;SDS011;7659;51.038;13.786;2024-02-21T05:10:44;12.45;;;3.83;;
15116;SDS011;7659;51.038;13.786;2024-02-21T05:13:10;12.50;;;3.97;;
15116;SDS011;7659;51.038;13.786;2024-02-21T05:15:35;16.63;;;4.07;;
15116;SDS011;7659;51.038;13.786;2024-02-21T05:18:01;13.98;;;3.92;;
15116;SDS011;7659;51.038;13.786;2024-02-21T05:20:26;17.30;;;3.95;;
15116;SDS011;7659;51.038;13.786;2024-02-21T05:22:52;15.73;;;4.03;;
15116;SDS011;7659;51.038;13.786;2024-02-21T05:25:17;20.55;;;4.55;;
15116;SDS011;7659;51.038;13.786;2024-02-21T05:27:42;16.95;;;3.75;;
15116;SDS011;7659;51.038;13.786;2024-02-21T05:30:08;16.45;;;4.20;;
15116;SDS011;7659;51.038;13.786;2024-02-21T05:32:35;17.95;;;4.50;;
15116;SDS011;7659;51.038;13.786;2024-02-21T05:35:00;16.60;;;3.55;;
15116;SDS011;7659;51.038;13.786;2024-02-21T05:37:26;14.55;;;4.20;;
15116;SDS011;7659;51.038;13.786;2024-02-21T05:39:51;18.73;;;4.47;;
15116;SDS011;7659;51.038;13.786;2024-02-21T05:42:17;13.52;;;3.80;;
15116;SDS011;7659;51.038;13.786;2024-02-21T05:44:42;15.32;;;3.83;;
15116;SDS011;7659;51.038;13.786;2024-02-21T05:47:07;17.88;;;4.40;;
15116;SDS011;7659;51.038;13.786;2024-02-21T05:49:35;17.15;;;4.35;;
15116;SDS011;7659;51.038;13.786;2024-02-21T05:52:01;18.75;;;4.47;;
15116;SDS011;7659;51.038;13.786;2024-02-21T05:54:26;14.40;;;4.40;;
15116;SDS011;7659;51.038;13.786;2024-02-21T05:56:51;14.32;;;4.40;;
15116;SDS011;7659;51.038;13.786;2024-02-21T05:59:18;16.00;;;3.53;;
15116;SDS011;7659;51.038;13.786;2024-02-21T06:01:43;17.50;;;3.90;;
15116;SDS011;7659;51.038;13.786;2024-02-21T06:04:09;14.30;;;4.43;;
15116;SDS011;7659;51.038;13.786;2024-02-21T06:06:35;16.90;;;4.10;;
15116;SDS011;7659;51.038;13.786;2024-02-21T06:09:00;17.52;;;4.22;;
15116;SDS011;7659;51.038;13.786;2024-02-21T06:11:27;16.40;;;4.47;;
15116;SDS011;7659;51.038;13.786;2024-02-21T06:13:53;18.13;;;7.03;;
15116;SDS011;7659;51.038;13.786;2024-02-21T06:16:18;14.02;;;4.22;;
15116;SDS011;7659;51.038;13.786;2024-02-21T06:18:44;14.07;;;3.70;;
15116;SDS011;7659;51.038;13.786;2024-02-21T06:21:09;20.00;;;4.00;;
15116;SDS011;7659;51.038;13.786;2024-02-21T06:23:36;14.45;;;3.58;;
15116;SDS011;7659;51.038;13.786;2024-02-21T06:26:02;12.68;;;3.65;;
15116;SDS011;7659;51.038;13.786;2024-02-21T06:28:27;13.88;;;4.20;;
15116;SDS011;7659;51.038;13.786;2024-02-21T06:30:52;14.52;;;4.28;;
15116;SDS011;7659;51.038;13.786;2024-02-21T06:33:18;16.75;;;3.70;;
15116;SDS011;7659;51.038;13.786;2024-02-21T06:35:47;18.05;;;4.35;;
15116;SDS011;7659;51.038;13.786;2024-02-21T06:38:13;13.60;;;3.30;;
15116;SDS011;7659;51.038;13.786;2024-02-21T06:40:39;13.18;;;3.85;;
15116;SDS011;7659;51.038;13.786;2024-02-21T06:43:05;18.48;;;4.10;;
15116;SDS011;7659;51.038;13.786;2024-02-21T06:45:31;18.30;;;4.85;;
15116;SDS011;7659;51.038;13.786;2024-02-21T06:47:56;16.27;;;5.03;;
15116;SDS011;7659;51.038;13.786;2024-02-21T06:50:22;18.33;;;4.03;;
15116;SDS011;7659;51.038;13.786;2024-02-21T06:52:47;20.77;;;4.47;;
15116;SDS011;7659;51.038;13.786;2024-02-21T06:55:12;11.93;;;3.60;;
15116;SDS011;7659;51.038;13.786;2024-02-21T06:57:38;17.83;;;4.80;;
15116;SDS011;7659;51.038;13.786;2024-02-21T07:00:04;18.42;;;4.75;;
15116;SDS011;7659;51.038;13.786;2024-02-21T07:02:33;17.73;;;4.43;;
15116;SDS011;7659;51.038;13.786;2024-02-21T07:04:59;11.10;;;3.80;;
15116;SDS011;7659;51.038;13.786;2024-02-21T07:07:24;15.65;;;4.88;;
15116;SDS011;7659;51.038;13.786;2024-02-21T07:09:49;13.98;;;3.90;;
15116;SDS011;7659;51.038;13.786;2024-02-21T07:12:15;17.38;;;3.50;;
15116;SDS011;7659;51.038;13.786;2024-02-21T07:14:40;11.18;;;3.63;;
15116;SDS011;7659;51.038;13.786;2024-02-21T07:17:06;13.10;;;3.97;;
15116;SDS011;7659;51.038;13.786;2024-02-21T07:19:31;16.48;;;4.50;;
15116;SDS011;7659;51.038;13.786;2024-02-21T07:21:56;15.90;;;3.58;;
15116;SDS011;7659;51.038;13.786;2024-02-21T07:24:22;14.95;;;4.43;;
15116;SDS011;7659;51.038;13.786;2024-02-21T07:26:48;14.18;;;3.90;;
15116;SDS011;7659;51.038;13.786;2024-02-21T07:29:13;18.35;;;4.00;;
15116;SDS011;7659;51.038;13.786;2024-02-21T07:31:40;13.13;;;3.67;;
15116;SDS011;7659;51.038;13.786;2024-02-21T07:34:06;11.77;;;3.70;;
15116;SDS011;7659;51.038;13.786;2024-02-21T07:36:31;13.38;;;3.28;;
15116;SDS011;7659;51.038;13.786;2024-02-21T07:38:56;14.30;;;3.85;;
15116;SDS011;7659;51.038;13.786;2024-02-21T07:41:22;12.98;;;3.72;;
15116;SDS011;7659;51.038;13.786;2024-02-21T07:43:47;19.42;;;3.92;;
15116;SDS011;7659;51.038;13.786;2024-02-21T07:46:13;14.25;;;3.80;;
15116;SDS011;7659;51.038;13.786;2024-02-21T07:48:39;14.63;;;3.83;;
15116;SDS011;7659;51.038;13.786;2024-02-21T07:51:04;13.00;;;3.50;;
15116;SDS011;7659;51.038;13.786;2024-02-21T07:53:30;16.42;;;4.07;;
15116;SDS011;7659;51.038;13.786;2024-02-21T07:55:55;19.50;;;4.00;;
15116;SDS011;7659;51.038;13.786;2024-02-21T07:58:21;10.32;;;3.50;;
15116;SDS011;7659;51.038;13.786;2024-02-21T08:00:46;18.65;;;4.43;;
15116;SDS011;7659;51.038;13.786;2024-02-21T08:03:11;14.00;;;4.32;;
15116;SDS011;7659;51.038;13.786;2024-02-21T08:05:37;14.23;;;3.80;;
15116;SDS011;7659;51.038;13.786;2024-02-21T08:08:03;9.82;;;3.47;;
15116;SDS011;7659;51.038;13.786;2024-02-21T08:10:29;12.90;;;3.85;;
15116;SDS011;7659;51.038;13.786;2024-02-21T08:12:54;13.73;;;3.47;;
15116;SDS011;7659;51.038;13.786;2024-02-21T08:15:20;11.48;;;4.00;;
15116;SDS011;7659;51.038;13.786;2024-02-21T08:17:49;16.63;;;4.18;;
15116;SDS011;7659;51.038;13.786;2024-02-21T08:20:14;14.98;;;3.80;;
15116;SDS011;7659;51.038;13.786;2024-02-21T08:22:40;16.17;;;4.13;;
15116;SDS011;7659;51.038;13.786;2024-02-21T08:25:06;13.60;;;3.72;;
15116;SDS011;7659;51.038;13.786;2024-02-21T08:27:31;14.43;;;3.20;;
15116;SDS011;7659;51.038;13.786;2024-02-21T08:29:56;14.13;;;4.32;;
15116;SDS011;7659;51.038;13.786;2024-02-21T08:32:22;12.70;;;3.28;;
15116;SDS011;7659;51.038;13.786;2024-02-21T08:34:47;16.63;;;4.10;;
15116;SDS011;7659;51.038;13.786;2024-02-21T08:37:13;15.00;;;3.97;;
15116;SDS011;7659;51.038;13.786;2024-02-21T08:39:38;12.00;;;3.83;;
15116;SDS011;7659;51.038;13.786;2024-02-21T08:42:04;13.15;;;3.92;;
15116;SDS011;7659;51.038;13.786;2024-02-21T08:44:30;18.15;;;3.88;;
15116;SDS011;7659;51.038;13.786;2024-02-21T08:46:55;10.55;;;3.83;;
15116;SDS011;7659;51.038;13.786;2024-02-21T08:49:20;9.75;;;3.20;;
15116;SDS011;7659;51.038;13.786;2024-02-21T08:51:46;9.10;;;2.97;;
15116;SDS011;7659;51.038;13.786;2024-02-21T08:54:11;16.20;;;3.97;;
15116;SDS011;7659;51.038;13.786;2024-02-21T08:56:37;12.60;;;3.85;;
15116;SDS011;7659;51.038;13.786;2024-02-21T08:59:02;12.27;;;3.92;;
15116;SDS011;7659;51.038;13.786;2024-02-21T09:01:29;14.73;;;3.47;;
15116;SDS011;7659;51.038;13.786;2024-02-21T09:03:54;14.07;;;3.85;;
15116;SDS011;7659;51.038;13.786;2024-02-21T09:06:21;13.05;;;3.33;;
15116;SDS011;7659;51.038;13.786;2024-02-21T09:08:47;8.35;;;2.80;;
15116;SDS011;7659;51.038;13.786;2024-02-21T09:11:13;10.23;;;3.38;;
15116;SDS011;7659;51.038;13.786;2024-02-21T09:13:38;9.55;;;3.55;;
15116;SDS011;7659;51.038;13.786;2024-02-21T09:16:04;13.18;;;3.47;;
15116;SDS011;7659;51.038;13.786;2024-02-21T09:18:29;14.40;;;3.60;;
15116;SDS011;7659;51.038;13.786;2024-02-21T09:20:55;15.00;;;3.90;;
15116;SDS011;7659;51.038;13.786;2024-02-21T09:23:23;13.70;;;3.65;;
15116;SDS011;7659;51.038;13.786;2024-02-21T09:25:49;12.90;;;3.50;;
15116;SDS011;7659;51.038;13.786;2024-02-21T09:28:14;11.82;;;3.65;;
15116;SDS011;7659;51.038;13.786;2024-02-21T09:30:40;9.07;;;3.17;;
15116;SDS011;7659;51.038;13.786;2024-02-21T09:33:05;12.10;;;2.97;;
15116;SDS011;7659;51.038;13.786;2024-02-21T09:35:30;16.55;;;4.53;;
15116;SDS011;7659;51.038;13.786;2024-02-21T09:37:58;13.80;;;3.97;;
15116;SDS011;7659;51.038;13.786;2024-02-21T09:40:23;9.95;;;3.40;;
15116;SDS011;7659;51.038;13.786;2024-02-21T09:42:50;11.73;;;3.63;;
15116;SDS011;7659;51.038;13.786;2024-02-21T09:45:20;10.55;;;3.40;;
15116;SDS011;7659;51.038;13.786;2024-02-21T09:47:58;12.35;;;3.67;;
15116;SDS011;7659;51.038;13.786;2024-02-21T09:50:27;15.48;;;4.32;;
15116;SDS011;7659;51.038;13.786;2024-02-21T09:52:54;16.05;;;3.72;;
15116;SDS011;7659;51.038;13.786;2024-02-21T09:55:19;9.95;;;3.17;;
15116;SDS011;7659;51.038;13.786;2024-02-21T09:57:45;17.45;;;4.25;;
15116;SDS011;7659;51.038;13.786;2024-02-21T10:00:11;11.93;;;3.38;;
15116;SDS011;7659;51.038;13.786;2024-02-21T10:02:41;14.48;;;4.03;;
15116;SDS011;7659;51.038;13.786;2024-02-21T10:05:07;13.45;;;4.35;;
15116;SDS011;7659;51.038;13.786;2024-02-21T10:07:33;12.35;;;3.30;;
15116;SDS011;7659;51.038;13.786;2024-02-21T10:10:05;13.02;;;3.40;;
15116;SDS011;7659;51.038;13.786;2024-02-21T10:12:30;11.13;;;3.25;;
15116;SDS011;7659;51.038;13.786;2024-02-21T10:15:02;16.42;;;3.90;;
15116;SDS011;7659;51.038;13.786;2024-02-21T10:17:28;13.10;;;3.55;;
15116;SDS011;7659;51.038;13.786;2024-02-21T10:19:53;15.45;;;4.13;;
15116;SDS011;7659;51.038;13.786;2024-02-21T10:22:19;12.15;;;3.72;;
15116;SDS011;7659;51.038;13.786;2024-02-21T10:24:46;12.93;;;3.80;;
15116;SDS011;7659;51.038;13.786;2024-02-21T10:27:11;12.60;;;3.78;;
15116;SDS011;7659;51.038;13.786;2024-02-21T10:29:37;13.73;;;3.63;;
15116;SDS011;7659;51.038;13.786;2024-02-21T10:32:12;14.32;;;3.80;;
15116;SDS011;7659;51.038;13.786;2024-02-21T10:34:38;14.65;;;4.22;;
15116;SDS011;7659;51.038;13.786;2024-02-21T10:37:05;15.13;;;4.25;;
15116;SDS011;7659;51.038;13.786;2024-02-21T10:39:31;12.60;;;3.70;;
15116;SDS011;7659;51.038;13.786;2024-02-21T10:41:57;13.55;;;3.47;;
15116;SDS011;7659;51.038;13.786;2024-02-21T10:44:24;10.30;;;3.40;;
15116;SDS011;7659;51.038;13.786;2024-02-21T10:46:51;12.48;;;3.33;;
15116;SDS011;7659;51.038;13.786;2024-02-21T10:49:19;12.45;;;3.25;;
15116;SDS011;7659;51.038;13.786;2024-02-21T10:51:47;13.68;;;4.18;;
15116;SDS011;7659;51.038;13.786;2024-02-21T10:54:28;8.98;;;2.90;;
15116;SDS011;7659;51.038;13.786;2024-02-21T10:56:55;9.63;;;3.53;;
15116;SDS011;7659;51.038;13.786;2024-02-21T10:59:22;10.25;;;3.58;;
15116;SDS011;7659;51.038;13.786;2024-02-21T11:01:48;9.68;;;2.95;;
15116;SDS011;7659;51.038;13.786;2024-02-21T11:04:14;11.13;;;3.45;;
15116;SDS011;7659;51.038;13.786;2024-02-21T11:06:40;9.88;;;3.00;;
15116;SDS011;7659;51.038;13.786;2024-02-21T11:09:07;10.57;;;3.28;;
15116;SDS011;7659;51.038;13.786;2024-02-21T11:11:37;7.75;;;2.90;;
15116;SDS011;7659;51.038;13.786;2024-02-21T11:14:03;9.38;;;3.03;;
15116;SDS011;7659;51.038;13.786;2024-02-21T11:16:34;10.70;;;3.55;;
15116;SDS011;7659;51.038;13.786;2024-02-21T11:19:07;12.23;;;3.67;;
15116;SDS011;7659;51.038;13.786;2024-02-21T11:21:33;11.68;;;3.22;;
15116;SDS011;7659;51.038;13.786;2024-02-21T11:24:00;13.15;;;3.47;;
15116;SDS011;7659;51.038;13.786;2024-02-21T11:26:27;17.85;;;3.65;;
15116;SDS011;7659;51.038;13.786;2024-02-21T11:29:00;11.75;;;3.35;;
15116;SDS011;7659;51.038;13.786;2024-02-21T11:31:25;9.75;;;3.08;;
15116;SDS011;7659;51.038;13.786;2024-02-21T11:33:52;10.95;;;3.05;;
15116;SDS011;7659;51.038;13.786;2024-02-21T11:36:25;9.68;;;3.17;;
15116;SDS011;7659;51.038;13.786;2024-02-21T11:38:51;8.25;;;2.85;;
15116;SDS011;7659;51.038;13.786;2024-02-21T11:41:16;11.77;;;3.20;;
15116;SDS011;7659;51.038;13.786;2024-02-21T11:43:41;8.75;;;3.10;;
15116;SDS011;7659;51.038;13.786;2024-02-21T11:46:07;11.98;;;3.38;;
15116;SDS011;7659;51.038;13.786;2024-02-21T11:48:32;10.30;;;3.42;;
15116;SDS011;7659;51.038;13.786;2024-02-21T11:50:58;9.35;;;3.00;;
15116;SDS011;7659;51.038;13.786;2024-02-21T11:53:23;9.88;;;2.90;;
15116;SDS011;7659;51.038;13.786;2024-02-21T11:55:49;8.60;;;3.45;;
15116;SDS011;7659;51.038;13.786;2024-02-21T11:58:15;7.30;;;2.63;;
15116;SDS011;7659;51.038;13.786;2024-02-21T12:00:40;7.25;;;2.85;;
15116;SDS011;7659;51.038;13.786;2024-02-21T12:03:06;8.90;;;3.25;;
15116;SDS011;7659;51.038;13.786;2024-02-21T12:05:32;7.57;;;3.10;;
15116;SDS011;7659;51.038;13.786;2024-02-21T12:07:57;10.10;;;2.97;;
15116;SDS011;7659;51.038;13.786;2024-02-21T12:10:23;9.55;;;2.45;;
15116;SDS011;7659;51.038;13.786;2024-02-21T12:12:48;6.38;;;2.67;;
15116;SDS011;7659;51.038;13.786;2024-02-21T12:15:17;6.20;;;2.72;;
15116;SDS011;7659;51.038;13.786;2024-02-21T12:17:44;8.60;;;2.63;;
15116;SDS011;7659;51.038;13.786;2024-02-21T12:20:10;7.47;;;2.17;;
15116;SDS011;7659;51.038;13.786;2024-02-21T12:22:39;8.25;;;2.67;;
15116;SDS011;7659;51.038;13.786;2024-02-21T12:25:15;9.48;;;3.08;;
15116;SDS011;7659;51.038;13.786;2024-02-21T12:27:40;11.10;;;3.03;;
15116;SDS011;7659;51.038;13.786;2024-02-21T12:30:06;9.00;;;2.60;;
15116;SDS011;7659;51.038;13.786;2024-02-21T12:32:35;7.68;;;2.60;;
15116;SDS011;7659;51.038;13.786;2024-02-21T12:35:01;7.47;;;2.47;;
15116;SDS011;7659;51.038;13.786;2024-02-21T12:37:26;10.35;;;2.53;;
15116;SDS011;7659;51.038;13.786;2024-02-21T12:39:51;5.93;;;2.58;;
15116;SDS011;7659;51.038;13.786;2024-02-21T12:42:17;8.27;;;2.30;;
15116;SDS011;7659;51.038;13.786;2024-02-21T12:44:42;6.10;;;2.25;;
15116;SDS011;7659;51.038;13.786;2024-02-21T12:47:08;5.70;;;2.20;;
15116;SDS011;7659;51.038;13.786;2024-02-21T12:49:33;7.80;;;2.50;;
15116;SDS011;7659;51.038;13.786;2024-02-21T12:51:59;10.18;;;3.10;;
15116;SDS011;7659;51.038;13.786;2024-02-21T12:54:25;6.70;;;2.47;;
15116;SDS011;7659;51.038;13.786;2024-02-21T12:56:53;7.97;;;2.50;;
15116;SDS011;7659;51.038;13.786;2024-02-21T12:59:19;7.13;;;2.58;;
15116;SDS011;7659;51.038;13.786;2024-02-21T13:01:44;9.73;;;2.53;;
15116;SDS011;7659;51.038;13.786;2024-02-21T13:04:10;7.22;;;2.67;;
15116;SDS011;7659;51.038;13.786;2024-02-21T13:06:37;8.32;;;2.92;;
15116;SDS011;7659;51.038;13.786;2024-02-21T13:09:02;9.45;;;2.67;;
15116;SDS011;7659;51.038;13.786;2024-02-21T13:11:29;8.43;;;2.60;;
15116;SDS011;7659;51.038;13.786;2024-02-21T13:13:57;9.80;;;3.00;;
15116;SDS011;7659;51.038;13.786;2024-02-21T13:16:22;7.55;;;2.47;;
15116;SDS011;7659;51.038;13.786;2024-02-21T13:18:48;7.80;;;2.50;;
15116;SDS011;7659;51.038;13.786;2024-02-21T13:21:13;9.75;;;2.60;;
15116;SDS011;7659;51.038;13.786;2024-02-21T13:23:39;4.88;;;2.45;;
15116;SDS011;7659;51.038;13.786;2024-02-21T13:26:05;5.18;;;2.10;;
15116;SDS011;7659;51.038;13.786;2024-02-21T13:28:31;10.20;;;2.70;;
15116;SDS011;7659;51.038;13.786;2024-02-21T13:30:56;10.57;;;2.33;;
15116;SDS011;7659;51.038;13.786;2024-02-21T13:33:22;6.97;;;2.47;;
15116;SDS011;7659;51.038;13.786;2024-02-21T13:35:48;7.53;;;2.40;;
15116;SDS011;7659;51.038;13.786;2024-02-21T13:38:13;7.15;;;2.65;;
15116;SDS011;7659;51.038;13.786;2024-02-21T13:40:39;12.27;;;2.72;;
15116;SDS011;7659;51.038;13.786;2024-02-21T13:43:07;9.38;;;2.65;;
15116;SDS011;7659;51.038;13.786;2024-02-21T13:45:33;8.35;;;2.35;;
15116;SDS011;7659;51.038;13.786;2024-02-21T13:47:58;8.20;;;2.42;;
15116;SDS011;7659;51.038;13.786;2024-02-21T13:50:27;7.68;;;2.30;;
15116;SDS011;7659;51.038;13.786;2024-02-21T13:52:54;8.35;;;2.38;;
15116;SDS011;7659;51.038;13.786;2024-02-21T13:55:19;8.65;;;2.70;;
15116;SDS011;7659;51.038;13.786;2024-02-21T13:57:47;8.85;;;2.75;;
15116;SDS011;7659;51.038;13.786;2024-02-21T14:00:13;8.05;;;2.72;;
15116;SDS011;7659;51.038;13.786;2024-02-21T14:02:38;8.88;;;2.35;;
15116;SDS011;7659;51.038;13.786;2024-02-21T14:05:04;8.18;;;2.80;;
15116;SDS011;7659;51.038;13.786;2024-02-21T14:07:31;5.95;;;2.60;;
15116;SDS011;7659;51.038;13.786;2024-02-21T14:09:58;7.63;;;2.50;;
15116;SDS011;7659;51.038;13.786;2024-02-21T14:12:24;7.55;;;2.47;;
15116;SDS011;7659;51.038;13.786;2024-02-21T14:14:49;6.72;;;2.33;;
15116;SDS011;7659;51.038;13.786;2024-02-21T14:17:15;8.57;;;3.10;;
15116;SDS011;7659;51.038;13.786;2024-02-21T14:19:40;9.65;;;2.35;;
15116;SDS011;7659;51.038;13.786;2024-02-21T14:22:07;10.55;;;2.95;;
15116;SDS011;7659;51.038;13.786;2024-02-21T14:24:32;8.05;;;2.53;;
15116;SDS011;7659;51.038;13.786;2024-02-21T14:26:57;4.72;;;2.33;;
15116;SDS011;7659;51.038;13.786;2024-02-21T14:29:23;7.25;;;2.50;;
15116;SDS011;7659;51.038;13.786;2024-02-21T14:31:48;8.93;;;2.58;;
15116;SDS011;7659;51.038;13.786;2024-02-21T14:34:14;6.72;;;2.33;;